createdAt,value
2018-03-11T00:00:34.057Z,13.8
2018-03-11T00:01:35.677Z,13.8
2018-03-11T00:02:37.307Z,13.8
2018-03-11T00:03:38.921Z,13.8
2018-03-11T00:04:40.538Z,13.8
2018-03-11T00:05:42.162Z,13.8
2018-03-11T00:06:43.781Z,13.8
2018-03-11T00:07:45.396Z,13.8
2018-03-11T00:08:47.012Z,13.8
2018-03-11T00:09:48.626Z,13.7
2018-03-11T00:10:50.246Z,13.8
2018-03-11T00:11:51.866Z,13.8
2018-03-11T00:12:53.486Z,13.8
2018-03-11T00:13:55.101Z,13.8
2018-03-11T00:14:56.714Z,13.8
2018-03-11T00:15:58.332Z,13.9
2018-03-11T00:16:59.945Z,13.9
2018-03-11T00:18:01.568Z,13.8
2018-03-11T00:19:03.180Z,13.8
2018-03-11T00:20:04.802Z,13.8
2018-03-11T00:21:06.417Z,13.8
2018-03-11T00:22:08.038Z,13.8
2018-03-11T00:23:09.651Z,13.8
2018-03-11T00:24:11.268Z,13.8
2018-03-11T00:25:12.887Z,13.7
2018-03-11T00:26:14.498Z,13.7
2018-03-11T00:27:16.116Z,13.7
2018-03-11T00:28:17.733Z,13.8
2018-03-11T00:29:19.374Z,13.8
2018-03-11T00:30:20.966Z,13.8
2018-03-11T00:31:22.584Z,13.8
2018-03-11T00:32:24.197Z,13.8
2018-03-11T00:33:25.817Z,13.9
2018-03-11T00:34:27.432Z,13.8
2018-03-11T00:35:29.060Z,13.9
2018-03-11T00:36:30.668Z,13.8
2018-03-11T00:37:32.286Z,13.8
2018-03-11T00:38:33.896Z,13.8
2018-03-11T00:39:35.519Z,13.7
2018-03-11T00:40:37.131Z,13.8
2018-03-11T00:41:38.756Z,13.8
2018-03-11T00:42:40.386Z,13.7
2018-03-11T00:43:41.993Z,13.7
2018-03-11T00:44:43.610Z,13.7
2018-03-11T00:45:45.228Z,13.7
2018-03-11T00:46:46.848Z,13.7
2018-03-11T00:47:48.462Z,13.5
2018-03-11T00:48:50.084Z,13.6
2018-03-11T00:49:51.696Z,13.5
2018-03-11T00:50:53.338Z,13.5
2018-03-11T00:51:54.960Z,13.5
2018-03-11T00:52:56.572Z,13.5
2018-03-11T00:53:58.187Z,13.5
2018-03-11T00:54:59.808Z,13.5
2018-03-11T00:56:01.428Z,13.5
2018-03-11T00:57:03.042Z,13.4
2018-03-11T00:58:04.661Z,13.3
2018-03-11T00:59:06.290Z,13.3
2018-03-11T01:00:07.895Z,13.3
2018-03-11T01:01:09.512Z,13.3
2018-03-11T01:02:11.128Z,13.3
2018-03-11T01:03:12.744Z,13.2
2018-03-11T01:04:14.364Z,13.3
2018-03-11T01:05:15.980Z,13.2
2018-03-11T01:06:17.597Z,13.2
2018-03-11T01:07:19.213Z,13.2
2018-03-11T01:08:20.828Z,13.2
2018-03-11T01:09:22.449Z,13.1
2018-03-11T01:10:24.069Z,13.1
2018-03-11T01:11:26.602Z,13.1
2018-03-11T01:12:28.509Z,13.1
2018-03-11T01:13:30.711Z,13.1
2018-03-11T01:14:33.120Z,13.1
2018-03-11T01:15:35.921Z,13.1
2018-03-11T01:16:38.529Z,13.1
2018-03-11T01:17:40.854Z,13.1
2018-03-11T01:18:42.480Z,13.1
2018-03-11T01:19:44.326Z,13.1
2018-03-11T01:20:46.594Z,13.1
2018-03-11T01:21:48.874Z,13.0
2018-03-11T01:22:51.441Z,13.0
2018-03-11T01:23:53.854Z,13.0
2018-03-11T01:24:56.350Z,13.0
2018-03-11T01:25:58.573Z,12.9
2018-03-11T01:27:00.334Z,12.9
2018-03-11T01:28:02.215Z,12.9
2018-03-11T01:29:04.184Z,12.9
2018-03-11T01:30:06.057Z,12.9
2018-03-11T01:31:08.460Z,12.9
2018-03-11T01:32:10.581Z,12.8
2018-03-11T01:33:12.413Z,12.8
2018-03-11T01:34:14.045Z,12.7
2018-03-11T01:35:16.017Z,12.7
2018-03-11T01:36:18.653Z,12.7
2018-03-11T01:37:20.840Z,12.7
2018-03-11T01:38:24.490Z,12.6
2018-03-11T01:39:26.170Z,12.6
2018-03-11T01:40:27.781Z,12.5
2018-03-11T01:41:29.662Z,12.5
2018-03-11T01:42:31.437Z,12.6
2018-03-11T01:43:33.061Z,12.5
2018-03-11T01:44:34.672Z,12.5
2018-03-11T01:45:36.424Z,12.5
2018-03-11T01:46:38.312Z,12.4
2018-03-11T01:47:40.478Z,12.5
2018-03-11T01:48:42.377Z,12.4
2018-03-11T01:49:44.768Z,12.3
2018-03-11T01:50:46.420Z,12.4
2018-03-11T01:51:48.511Z,12.3
2018-03-11T01:52:50.706Z,12.3
2018-03-11T01:53:52.695Z,12.2
2018-03-11T01:54:54.384Z,12.3
2018-03-11T01:55:57.060Z,12.3
2018-03-11T01:56:59.089Z,12.2
2018-03-11T01:58:01.072Z,12.2
2018-03-11T01:59:02.916Z,12.2
2018-03-11T02:00:04.537Z,12.2
2018-03-11T02:01:06.156Z,12.2
2018-03-11T02:02:07.770Z,12.2
2018-03-11T02:03:10.150Z,12.2
2018-03-11T02:04:12.926Z,12.3
2018-03-11T02:05:15.599Z,12.3
2018-03-11T02:06:17.598Z,12.2
2018-03-11T02:07:19.552Z,12.2
2018-03-11T02:08:21.927Z,12.2
2018-03-11T02:09:24.177Z,12.2
2018-03-11T02:10:27.771Z,12.2
2018-03-11T02:11:31.413Z,12.1
2018-03-11T02:12:34.343Z,12.2
2018-03-11T02:13:37.015Z,12.1
2018-03-11T02:14:39.451Z,12.0
2018-03-11T02:15:42.148Z,12.0
2018-03-11T02:16:44.707Z,12.0
2018-03-11T02:17:47.673Z,12.0
2018-03-11T02:18:50.395Z,12.0
2018-03-11T02:19:54.388Z,12.0
2018-03-11T02:20:57.469Z,12.0
2018-03-11T02:21:59.088Z,11.9
2018-03-11T02:23:00.710Z,12.0
2018-03-11T02:24:02.326Z,11.9
2018-03-11T02:25:03.945Z,11.9
2018-03-11T02:26:05.559Z,11.9
2018-03-11T02:27:07.173Z,11.9
2018-03-11T02:28:08.796Z,11.8
2018-03-11T02:29:10.409Z,11.9
2018-03-11T02:30:12.035Z,11.8
2018-03-11T02:31:13.649Z,11.8
2018-03-11T02:32:15.265Z,11.8
2018-03-11T02:33:16.882Z,11.8
2018-03-11T02:34:18.499Z,11.8
2018-03-11T02:35:20.114Z,11.9
2018-03-11T02:36:21.740Z,11.8
2018-03-11T02:37:23.351Z,11.8
2018-03-11T02:38:24.972Z,11.8
2018-03-11T02:39:26.584Z,11.8
2018-03-11T02:40:28.205Z,11.8
2018-03-11T02:41:29.818Z,11.8
2018-03-11T02:42:31.440Z,11.8
2018-03-11T02:43:33.058Z,11.8
2018-03-11T02:44:34.675Z,11.8
2018-03-11T02:45:36.289Z,11.9
2018-03-11T02:46:37.901Z,11.9
2018-03-11T02:47:39.512Z,11.9
2018-03-11T02:48:41.121Z,11.8
2018-03-11T02:49:42.729Z,11.8
2018-03-11T02:50:44.342Z,11.8
2018-03-11T02:51:45.956Z,11.8
2018-03-11T02:52:47.563Z,11.8
2018-03-11T02:53:49.175Z,11.7
2018-03-11T02:54:50.782Z,11.8
2018-03-11T02:55:52.394Z,11.7
2018-03-11T02:56:54.002Z,11.7
2018-03-11T02:57:55.615Z,11.8
2018-03-11T02:58:57.225Z,11.7
2018-03-11T02:59:58.838Z,11.7
2018-03-11T03:01:00.446Z,11.7
2018-03-11T03:02:02.057Z,11.7
2018-03-11T03:03:03.663Z,11.7
2018-03-11T03:04:05.275Z,11.7
2018-03-11T03:05:06.890Z,11.7
2018-03-11T03:06:08.504Z,11.7
2018-03-11T03:07:10.113Z,11.6
2018-03-11T03:08:11.721Z,11.5
2018-03-11T03:09:13.335Z,11.5
2018-03-11T03:10:14.941Z,11.6
2018-03-11T03:11:16.553Z,11.5
2018-03-11T03:12:18.165Z,11.6
2018-03-11T03:13:19.770Z,11.5
2018-03-11T03:14:21.380Z,11.4
2018-03-11T03:15:22.994Z,11.4
2018-03-11T03:16:24.606Z,11.4
2018-03-11T03:17:26.213Z,11.3
2018-03-11T03:18:27.829Z,11.4
2018-03-11T03:19:29.435Z,11.2
2018-03-11T03:20:31.050Z,11.3
2018-03-11T03:21:32.659Z,11.3
2018-03-11T03:22:34.272Z,11.3
2018-03-11T03:23:35.877Z,11.2
2018-03-11T03:24:37.492Z,11.3
2018-03-11T03:25:39.100Z,11.3
2018-03-11T03:26:40.716Z,11.3
2018-03-11T03:27:42.332Z,11.2
2018-03-11T03:28:43.939Z,11.2
2018-03-11T03:29:45.550Z,11.2
2018-03-11T03:30:47.225Z,11.2
2018-03-11T03:31:48.768Z,11.1
2018-03-11T03:32:50.380Z,11.1
2018-03-11T03:33:51.989Z,11.2
2018-03-11T03:34:53.606Z,11.2
2018-03-11T03:35:55.214Z,11.1
2018-03-11T03:36:56.822Z,11.0
2018-03-11T03:37:58.432Z,11.1
2018-03-11T03:39:00.042Z,11.1
2018-03-11T03:40:01.654Z,11.0
2018-03-11T03:41:03.262Z,11.0
2018-03-11T03:42:04.876Z,11.0
2018-03-11T03:43:06.487Z,11.0
2018-03-11T03:44:08.092Z,11.0
2018-03-11T03:45:09.709Z,11.0
2018-03-11T03:46:11.312Z,11.0
2018-03-11T03:47:12.920Z,10.9
2018-03-11T03:48:14.537Z,11.0
2018-03-11T03:49:16.154Z,11.0
2018-03-11T03:50:17.765Z,11.0
2018-03-11T03:51:19.375Z,10.9
2018-03-11T03:52:20.982Z,11.0
2018-03-11T03:53:22.593Z,11.0
2018-03-11T03:54:24.203Z,10.9
2018-03-11T03:55:25.816Z,11.0
2018-03-11T03:56:27.426Z,11.0
2018-03-11T03:57:29.038Z,10.8
2018-03-11T03:58:30.650Z,10.8
2018-03-11T03:59:32.256Z,10.8
2018-03-11T04:00:33.867Z,10.8
2018-03-11T04:01:35.474Z,10.8
2018-03-11T04:02:37.082Z,10.8
2018-03-11T04:03:38.695Z,10.8
2018-03-11T04:04:40.306Z,10.8
2018-03-11T04:05:41.917Z,10.9
2018-03-11T04:06:43.520Z,10.9
2018-03-11T04:07:45.131Z,10.8
2018-03-11T04:08:46.744Z,10.8
2018-03-11T04:09:48.353Z,10.7
2018-03-11T04:10:49.969Z,10.7
2018-03-11T04:11:51.579Z,10.8
2018-03-11T04:12:53.188Z,10.8
2018-03-11T04:13:54.796Z,10.8
2018-03-11T04:14:56.408Z,10.7
2018-03-11T04:15:58.021Z,10.7
2018-03-11T04:16:59.633Z,10.7
2018-03-11T04:18:01.247Z,10.8
2018-03-11T04:19:02.858Z,10.7
2018-03-11T04:20:04.470Z,10.7
2018-03-11T04:21:06.077Z,10.6
2018-03-11T04:22:07.687Z,10.6
2018-03-11T04:23:09.299Z,10.5
2018-03-11T04:24:10.911Z,10.5
2018-03-11T04:25:12.521Z,10.6
2018-03-11T04:26:14.131Z,10.6
2018-03-11T04:27:15.742Z,10.6
2018-03-11T04:28:17.355Z,10.6
2018-03-11T04:29:18.962Z,10.7
2018-03-11T04:30:20.573Z,10.6
2018-03-11T04:31:22.186Z,10.6
2018-03-11T04:32:23.800Z,10.7
2018-03-11T04:33:25.414Z,10.7
2018-03-11T04:34:27.020Z,10.7
2018-03-11T04:35:28.633Z,10.7
2018-03-11T04:36:30.243Z,10.7
2018-03-11T04:37:31.852Z,10.8
2018-03-11T04:38:33.463Z,10.7
2018-03-11T04:39:35.072Z,10.6
2018-03-11T04:40:36.683Z,10.6
2018-03-11T04:41:38.290Z,10.6
2018-03-11T04:42:39.906Z,10.7
2018-03-11T04:43:41.508Z,10.7
2018-03-11T04:44:43.919Z,10.7
2018-03-11T04:45:45.535Z,10.7
2018-03-11T04:46:47.147Z,10.7
2018-03-11T04:47:48.756Z,10.6
2018-03-11T04:48:50.364Z,10.6
2018-03-11T04:49:51.973Z,10.6
2018-03-11T04:50:53.585Z,10.7
2018-03-11T04:51:55.192Z,10.8
2018-03-11T04:52:56.801Z,10.8
2018-03-11T04:53:58.414Z,10.9
2018-03-11T04:55:00.029Z,10.9
2018-03-11T04:56:01.637Z,10.8
2018-03-11T04:57:03.242Z,10.9
2018-03-11T04:58:04.855Z,10.9
2018-03-11T04:59:06.464Z,10.9
2018-03-11T05:00:08.086Z,11.0
2018-03-11T05:01:09.685Z,11.0
2018-03-11T05:02:11.299Z,10.9
2018-03-11T05:03:12.905Z,10.9
2018-03-11T05:04:14.516Z,11.0
2018-03-11T05:05:16.129Z,10.9
2018-03-11T05:06:17.734Z,11.0
2018-03-11T05:07:19.346Z,11.1
2018-03-11T05:08:20.957Z,11.1
2018-03-11T05:09:22.569Z,11.1
2018-03-11T05:10:24.172Z,11.1
2018-03-11T05:11:25.787Z,11.1
2018-03-11T05:12:27.394Z,11.1
2018-03-11T05:13:29.007Z,11.0
2018-03-11T05:14:30.614Z,11.0
2018-03-11T05:15:32.229Z,11.0
2018-03-11T05:16:33.835Z,11.0
2018-03-11T05:17:35.446Z,11.0
2018-03-11T05:18:37.053Z,11.1
2018-03-11T05:19:38.663Z,11.1
2018-03-11T05:20:40.271Z,11.0
2018-03-11T05:21:41.885Z,11.0
2018-03-11T05:22:43.500Z,11.0
2018-03-11T05:23:45.114Z,11.0
2018-03-11T05:24:46.719Z,11.0
2018-03-11T05:25:48.329Z,11.1
2018-03-11T05:26:49.936Z,11.1
2018-03-11T05:27:51.548Z,11.2
2018-03-11T05:28:53.161Z,11.2
2018-03-11T05:29:54.772Z,11.3
2018-03-11T05:30:56.381Z,11.2
2018-03-11T05:31:57.991Z,11.2
2018-03-11T05:32:59.599Z,11.3
2018-03-11T05:34:01.214Z,11.4
2018-03-11T05:35:02.822Z,11.3
2018-03-11T05:36:04.438Z,11.3
2018-03-11T05:37:06.049Z,11.3
2018-03-11T05:38:07.658Z,11.4
2018-03-11T05:39:09.272Z,11.4
2018-03-11T05:40:10.883Z,11.4
2018-03-11T05:41:12.490Z,11.4
2018-03-11T05:42:14.103Z,11.4
2018-03-11T05:43:15.717Z,11.4
2018-03-11T05:44:17.332Z,11.4
2018-03-11T05:45:18.941Z,11.4
2018-03-11T05:46:20.552Z,11.5
2018-03-11T05:47:22.164Z,11.5
2018-03-11T05:48:23.774Z,11.5
2018-03-11T05:49:25.384Z,11.6
2018-03-11T05:50:26.992Z,11.6
2018-03-11T05:51:28.612Z,11.6
2018-03-11T05:52:30.228Z,11.5
2018-03-11T05:53:31.835Z,11.6
2018-03-11T05:54:33.450Z,11.5
2018-03-11T05:55:35.060Z,11.5
2018-03-11T05:56:36.672Z,11.6
2018-03-11T05:57:38.288Z,11.6
2018-03-11T05:58:39.906Z,11.6
2018-03-11T05:59:41.516Z,11.6
2018-03-11T06:00:43.126Z,11.6
2018-03-11T06:01:44.740Z,11.6
2018-03-11T06:02:46.352Z,11.6
2018-03-11T06:03:47.977Z,11.6
2018-03-11T06:04:49.584Z,11.7
2018-03-11T06:05:51.194Z,11.6
2018-03-11T06:06:52.805Z,11.7
2018-03-11T06:07:54.420Z,11.7
2018-03-11T06:08:56.033Z,11.7
2018-03-11T06:09:57.643Z,11.8
2018-03-11T06:10:59.255Z,11.8
2018-03-11T06:12:00.874Z,11.8
2018-03-11T06:13:02.485Z,11.7
2018-03-11T06:14:04.103Z,11.7
2018-03-11T06:15:05.710Z,11.8
2018-03-11T06:16:07.326Z,11.8
2018-03-11T06:17:08.935Z,11.9
2018-03-11T06:18:10.549Z,11.8
2018-03-11T06:19:12.160Z,11.9
2018-03-11T06:20:13.778Z,11.8
2018-03-11T06:21:15.388Z,11.8
2018-03-11T06:22:17.004Z,11.9
2018-03-11T06:23:18.611Z,11.8
2018-03-11T06:24:20.227Z,11.8
2018-03-11T06:25:21.842Z,11.8
2018-03-11T06:26:23.457Z,11.9
2018-03-11T06:27:25.071Z,11.8
2018-03-11T06:28:26.681Z,11.9
2018-03-11T06:29:28.299Z,11.9
2018-03-11T06:30:29.911Z,12.0
2018-03-11T06:31:31.528Z,12.1
2018-03-11T06:32:33.138Z,12.0
2018-03-11T06:33:34.758Z,12.0
2018-03-11T06:34:36.375Z,12.1
2018-03-11T06:35:37.988Z,12.1
2018-03-11T06:36:39.604Z,12.1
2018-03-11T06:37:41.219Z,12.1
2018-03-11T06:38:42.830Z,12.1
2018-03-11T06:39:44.440Z,12.2
2018-03-11T06:40:46.061Z,12.2
2018-03-11T06:41:47.677Z,12.2
2018-03-11T06:42:49.295Z,12.2
2018-03-11T06:43:50.900Z,12.2
2018-03-11T06:44:52.519Z,12.3
2018-03-11T06:45:54.131Z,12.3
2018-03-11T06:46:55.744Z,12.4
2018-03-11T06:47:57.357Z,12.4
2018-03-11T06:48:58.975Z,12.5
2018-03-11T06:50:00.594Z,12.4
2018-03-11T06:51:02.209Z,12.5
2018-03-11T06:52:03.826Z,12.5
2018-03-11T06:53:05.436Z,12.5
2018-03-11T06:54:07.050Z,12.5
2018-03-11T06:55:08.668Z,12.4
2018-03-11T06:56:10.287Z,12.5
2018-03-11T06:57:11.900Z,12.5
2018-03-11T06:58:13.528Z,12.5
2018-03-11T06:59:15.131Z,12.5
2018-03-11T07:00:16.748Z,12.6
2018-03-11T07:01:18.357Z,12.6
2018-03-11T07:02:19.972Z,12.6
2018-03-11T07:03:21.595Z,12.7
2018-03-11T07:04:23.212Z,12.6
2018-03-11T07:05:24.819Z,12.7
2018-03-11T07:06:26.435Z,12.8
2018-03-11T07:07:28.051Z,12.8
2018-03-11T07:08:29.662Z,12.8
2018-03-11T07:09:31.280Z,12.9
2018-03-11T07:10:32.894Z,12.8
2018-03-11T07:11:34.519Z,12.8
2018-03-11T07:12:36.130Z,13.0
2018-03-11T07:13:37.744Z,12.9
2018-03-11T07:14:39.360Z,13.0
2018-03-11T07:15:40.969Z,13.0
2018-03-11T07:16:42.581Z,13.0
2018-03-11T07:17:44.200Z,13.1
2018-03-11T07:18:45.814Z,13.1
2018-03-11T07:19:47.429Z,13.2
2018-03-11T07:20:49.046Z,13.2
2018-03-11T07:21:50.662Z,13.2
2018-03-11T07:22:52.274Z,13.3
2018-03-11T07:23:53.893Z,13.4
2018-03-11T07:24:55.510Z,13.4
2018-03-11T07:25:57.125Z,13.4
2018-03-11T07:26:58.740Z,13.4
2018-03-11T07:28:00.351Z,13.4
2018-03-11T07:29:01.969Z,13.5
2018-03-11T07:30:03.582Z,13.6
2018-03-11T07:31:05.205Z,13.6
2018-03-11T07:32:06.820Z,13.7
2018-03-11T07:33:08.445Z,13.7
2018-03-11T07:34:10.046Z,13.7
2018-03-11T07:35:11.666Z,13.6
2018-03-11T07:36:13.278Z,13.7
2018-03-11T07:37:14.897Z,13.7
2018-03-11T07:38:16.509Z,13.8
2018-03-11T07:39:19.116Z,13.8
2018-03-11T07:40:20.728Z,13.9
2018-03-11T07:41:22.346Z,14.0
2018-03-11T07:42:23.958Z,14.0
2018-03-11T07:43:25.574Z,14.0
2018-03-11T07:44:27.187Z,14.0
2018-03-11T07:45:28.803Z,14.1
2018-03-11T07:46:30.420Z,14.2
2018-03-11T07:47:32.038Z,14.3
2018-03-11T07:48:33.654Z,14.3
2018-03-11T07:49:35.265Z,14.4
2018-03-11T07:50:36.877Z,14.5
2018-03-11T07:51:38.491Z,14.5
2018-03-11T07:52:40.111Z,14.6
2018-03-11T07:53:41.724Z,14.7
2018-03-11T07:54:43.345Z,14.7
2018-03-11T07:55:44.956Z,14.7
2018-03-11T07:56:46.570Z,14.8
2018-03-11T07:57:48.187Z,14.7
2018-03-11T07:58:49.799Z,14.7
2018-03-11T07:59:51.419Z,14.7
2018-03-11T08:00:53.034Z,14.7
2018-03-11T08:01:54.655Z,14.8
2018-03-11T08:02:56.267Z,14.8
2018-03-11T08:03:57.888Z,14.8
2018-03-11T08:04:59.499Z,14.9
2018-03-11T08:06:01.115Z,14.9
2018-03-11T08:07:02.731Z,15.0
2018-03-11T08:08:04.350Z,15.1
2018-03-11T08:09:05.966Z,15.1
2018-03-11T08:10:07.585Z,15.1
2018-03-11T08:11:09.195Z,15.1
2018-03-11T08:12:10.810Z,15.0
2018-03-11T08:13:12.428Z,15.1
2018-03-11T08:14:14.045Z,15.2
2018-03-11T08:15:15.663Z,15.1
2018-03-11T08:16:17.283Z,15.2
2018-03-11T08:17:20.355Z,15.2
2018-03-11T08:18:21.953Z,15.2
2018-03-11T08:19:23.555Z,15.1
2018-03-11T08:20:25.169Z,15.1
2018-03-11T08:21:26.788Z,15.1
2018-03-11T08:22:28.409Z,15.2
2018-03-11T08:23:30.024Z,15.2
2018-03-11T08:24:31.632Z,15.1
2018-03-11T08:25:33.245Z,15.1
2018-03-11T08:26:34.864Z,15.1
2018-03-11T08:27:36.488Z,15.2
2018-03-11T08:28:38.100Z,15.2
2018-03-11T08:29:39.714Z,15.2
2018-03-11T08:30:41.330Z,15.1
2018-03-11T08:31:42.946Z,15.1
2018-03-11T08:32:44.560Z,15.2
2018-03-11T08:33:46.173Z,15.3
2018-03-11T08:34:47.795Z,15.4
2018-03-11T08:35:49.415Z,15.5
2018-03-11T08:36:51.031Z,15.3
2018-03-11T08:37:52.645Z,15.4
2018-03-11T08:38:54.259Z,15.4
2018-03-11T08:39:55.873Z,15.4
2018-03-11T08:40:57.491Z,15.6
2018-03-11T08:41:59.129Z,15.6
2018-03-11T08:43:00.745Z,15.7
2018-03-11T08:44:02.365Z,15.8
2018-03-11T08:45:03.982Z,15.9
2018-03-11T08:46:05.600Z,15.9
2018-03-11T08:47:07.222Z,16.0
2018-03-11T08:48:08.829Z,16.2
2018-03-11T08:49:10.446Z,16.1
2018-03-11T08:50:12.067Z,16.3
2018-03-11T08:51:13.696Z,16.9
2018-03-11T08:52:15.308Z,17.4
2018-03-11T08:53:16.957Z,17.3
2018-03-11T08:54:18.573Z,17.1
2018-03-11T08:55:20.188Z,17.0
2018-03-11T08:56:21.801Z,16.9
2018-03-11T08:57:23.422Z,16.9
2018-03-11T08:58:25.037Z,16.9
2018-03-11T08:59:26.653Z,17.0
2018-03-11T09:00:28.272Z,17.0
2018-03-11T09:01:29.884Z,16.8
2018-03-11T09:02:31.501Z,16.9
2018-03-11T09:03:33.139Z,17.0
2018-03-11T09:04:34.760Z,17.0
2018-03-11T09:05:36.374Z,17.0
2018-03-11T09:06:38.093Z,17.0
2018-03-11T09:07:39.705Z,16.9
2018-03-11T09:08:41.326Z,16.8
2018-03-11T09:09:42.956Z,16.7
2018-03-11T09:10:44.590Z,16.7
2018-03-11T09:11:46.218Z,16.6
2018-03-11T09:12:47.850Z,16.6
2018-03-11T09:13:49.469Z,16.4
2018-03-11T09:14:51.085Z,16.3
2018-03-11T09:15:52.721Z,16.2
2018-03-11T09:16:54.344Z,16.1
2018-03-11T09:17:55.980Z,15.9
2018-03-11T09:18:57.614Z,15.8
2018-03-11T09:19:59.251Z,15.7
2018-03-11T09:21:00.873Z,15.8
2018-03-11T09:22:02.498Z,15.5
2018-03-11T09:23:04.255Z,15.6
2018-03-11T09:24:05.897Z,15.5
2018-03-11T09:25:07.526Z,15.5
2018-03-11T09:26:09.163Z,15.4
2018-03-11T09:27:10.790Z,15.3
2018-03-11T09:28:12.438Z,15.3
2018-03-11T09:29:14.135Z,15.3
2018-03-11T09:30:15.763Z,15.2
2018-03-11T09:31:17.376Z,15.1
2018-03-11T09:32:18.990Z,15.1
2018-03-11T09:33:20.606Z,15.2
2018-03-11T09:34:22.218Z,15.1
2018-03-11T09:35:23.832Z,15.1
2018-03-11T09:36:25.448Z,15.1
2018-03-11T09:37:27.061Z,15.2
2018-03-11T09:38:28.675Z,15.1
2018-03-11T09:39:30.295Z,15.1
2018-03-11T09:40:31.912Z,15.1
2018-03-11T09:41:33.524Z,15.1
2018-03-11T09:42:35.141Z,15.1
2018-03-11T09:43:36.755Z,15.1
2018-03-11T09:44:38.368Z,15.3
2018-03-11T09:45:39.978Z,15.3
2018-03-11T09:46:41.597Z,15.4
2018-03-11T09:47:43.210Z,15.3
2018-03-11T09:48:44.827Z,15.4
2018-03-11T09:49:46.447Z,15.4
2018-03-11T09:50:48.063Z,15.5
2018-03-11T09:51:49.680Z,15.4
2018-03-11T09:52:51.292Z,15.5
2018-03-11T09:53:52.912Z,15.5
2018-03-11T09:54:54.525Z,15.5
2018-03-11T09:55:56.145Z,15.6
2018-03-11T09:56:57.828Z,15.7
2018-03-11T09:57:59.376Z,15.7
2018-03-11T09:59:00.989Z,15.7
2018-03-11T10:00:02.606Z,15.8
2018-03-11T10:01:04.220Z,15.8
2018-03-11T10:02:05.839Z,15.9
2018-03-11T10:03:07.454Z,16.0
2018-03-11T10:04:09.077Z,16.2
2018-03-11T10:05:10.691Z,16.6
2018-03-11T10:06:12.314Z,17.0
2018-03-11T10:07:13.927Z,17.3
2018-03-11T10:08:15.550Z,17.4
2018-03-11T10:09:17.170Z,17.9
2018-03-11T10:10:18.789Z,17.9
2018-03-11T10:11:20.412Z,18.1
2018-03-11T10:12:22.027Z,18.4
2018-03-11T10:13:23.651Z,18.1
2018-03-11T10:14:25.268Z,18.1
2018-03-11T10:15:26.890Z,18.1
2018-03-11T10:16:28.506Z,18.2
2018-03-11T10:17:30.182Z,18.2
2018-03-11T10:18:31.795Z,18.1
2018-03-11T10:19:33.437Z,18.1
2018-03-11T10:20:35.034Z,18.1
2018-03-11T10:21:36.657Z,18.1
2018-03-11T10:22:38.273Z,18.1
2018-03-11T10:23:40.741Z,18.0
2018-03-11T10:24:42.357Z,17.6
2018-03-11T10:25:43.974Z,17.7
2018-03-11T10:26:45.597Z,17.4
2018-03-11T10:27:47.215Z,17.5
2018-03-11T10:28:48.830Z,17.4
2018-03-11T10:29:50.448Z,17.6
2018-03-11T10:30:52.077Z,17.4
2018-03-11T10:31:53.690Z,17.4
2018-03-11T10:32:55.307Z,17.3
2018-03-11T10:33:56.920Z,17.3
2018-03-11T10:34:58.545Z,17.3
2018-03-11T10:36:00.157Z,17.4
2018-03-11T10:37:01.821Z,17.2
2018-03-11T10:38:03.438Z,17.2
2018-03-11T10:39:05.063Z,17.3
2018-03-11T10:40:06.683Z,17.5
2018-03-11T10:41:08.294Z,17.6
2018-03-11T10:42:09.919Z,17.5
2018-03-11T10:43:11.532Z,17.6
2018-03-11T10:44:13.148Z,17.5
2018-03-11T10:45:14.772Z,17.4
2018-03-11T10:46:16.393Z,17.4
2018-03-11T10:47:18.008Z,17.2
2018-03-11T10:48:19.624Z,17.2
2018-03-11T10:49:21.242Z,17.1
2018-03-11T10:50:22.862Z,17.2
2018-03-11T10:51:24.482Z,17.4
2018-03-11T10:52:26.092Z,17.4
2018-03-11T10:53:27.715Z,17.5
2018-03-11T10:54:29.341Z,17.5
2018-03-11T10:55:30.950Z,17.7
2018-03-11T10:56:32.568Z,17.7
2018-03-11T10:57:34.192Z,17.8
2018-03-11T10:58:35.807Z,17.9
2018-03-11T10:59:37.429Z,18.0
2018-03-11T11:00:39.052Z,18.3
2018-03-11T11:01:40.675Z,18.4
2018-03-11T11:02:42.286Z,18.4
2018-03-11T11:03:43.910Z,18.2
2018-03-11T11:04:45.533Z,18.2
2018-03-11T11:05:47.145Z,18.2
2018-03-11T11:06:48.765Z,18.4
2018-03-11T11:07:50.389Z,18.4
2018-03-11T11:08:52.008Z,18.4
2018-03-11T11:09:53.685Z,18.5
2018-03-11T11:10:55.244Z,18.5
2018-03-11T11:11:56.867Z,18.6
2018-03-11T11:12:58.483Z,18.8
2018-03-11T11:14:00.109Z,18.7
2018-03-11T11:15:01.738Z,18.6
2018-03-11T11:16:03.345Z,18.6
2018-03-11T11:17:04.964Z,18.4
2018-03-11T11:18:06.580Z,18.1
2018-03-11T11:19:08.194Z,18.1
2018-03-11T11:20:09.817Z,17.9
2018-03-11T11:21:11.433Z,18.0
2018-03-11T11:22:13.059Z,18.0
2018-03-11T11:23:14.679Z,18.1
2018-03-11T11:24:16.294Z,17.9
2018-03-11T11:25:17.920Z,17.8
2018-03-11T11:26:19.532Z,17.8
2018-03-11T11:27:21.153Z,17.8
2018-03-11T11:28:22.768Z,17.6
2018-03-11T11:29:24.390Z,17.6
2018-03-11T11:30:26.007Z,17.9
2018-03-11T11:31:27.623Z,17.9
2018-03-11T11:32:29.235Z,17.8
2018-03-11T11:33:30.855Z,17.8
2018-03-11T11:34:32.468Z,17.9
2018-03-11T11:35:34.088Z,17.8
2018-03-11T11:36:35.709Z,17.7
2018-03-11T11:37:37.331Z,17.6
2018-03-11T11:38:38.947Z,17.7
2018-03-11T11:39:40.559Z,17.6
2018-03-11T11:40:45.546Z,17.3
2018-03-11T11:41:53.215Z,17.0
2018-03-11T11:43:00.056Z,17.0
2018-03-11T11:44:02.630Z,17.0
2018-03-11T11:45:04.217Z,17.0
2018-03-11T11:46:05.906Z,17.0
2018-03-11T11:47:07.477Z,16.9
2018-03-11T11:48:09.090Z,16.8
2018-03-11T11:49:10.714Z,16.8
2018-03-11T11:50:12.332Z,16.8
2018-03-11T11:51:13.945Z,16.8
2018-03-11T11:52:15.561Z,16.6
2018-03-11T11:53:17.179Z,16.6
2018-03-11T11:54:18.798Z,16.5
2018-03-11T11:55:20.411Z,16.4
2018-03-11T11:56:22.031Z,16.5
2018-03-11T11:57:23.645Z,16.4
2018-03-11T11:58:25.262Z,16.4
2018-03-11T11:59:26.883Z,16.4
2018-03-11T12:00:28.503Z,16.4
2018-03-11T12:01:30.112Z,16.4
2018-03-11T12:02:31.726Z,16.4
2018-03-11T12:03:33.349Z,16.4
2018-03-11T12:04:34.965Z,16.5
2018-03-11T12:05:36.579Z,16.4
2018-03-11T12:06:38.200Z,16.4
2018-03-11T12:07:39.813Z,16.4
2018-03-11T12:08:41.432Z,16.4
2018-03-11T12:09:43.043Z,16.4
2018-03-11T12:10:44.658Z,16.3
2018-03-11T12:11:46.996Z,16.5
2018-03-11T12:12:48.615Z,16.5
2018-03-11T12:13:50.228Z,16.6
2018-03-11T12:14:51.844Z,16.8
2018-03-11T12:15:53.465Z,16.9
2018-03-11T12:16:55.082Z,17.0
2018-03-11T12:17:56.695Z,17.0
2018-03-11T12:18:58.310Z,17.2
2018-03-11T12:19:59.932Z,17.2
2018-03-11T12:21:01.553Z,17.4
2018-03-11T12:22:03.166Z,17.3
2018-03-11T12:23:04.792Z,17.4
2018-03-11T12:24:06.400Z,17.5
2018-03-11T12:25:08.020Z,17.5
2018-03-11T12:26:09.638Z,17.5
2018-03-11T12:27:11.260Z,17.6
2018-03-11T12:28:12.874Z,17.6
2018-03-11T12:29:14.491Z,17.5
2018-03-11T12:30:16.104Z,17.5
2018-03-11T12:31:17.724Z,17.7
2018-03-11T12:32:19.338Z,17.6
2018-03-11T12:33:20.960Z,17.7
2018-03-11T12:34:22.617Z,17.6
2018-03-11T12:35:24.192Z,17.7
2018-03-11T12:36:25.816Z,17.6
2018-03-11T12:37:27.421Z,17.7
2018-03-11T12:38:29.041Z,17.7
2018-03-11T12:39:30.657Z,17.8
2018-03-11T12:40:32.278Z,17.9
2018-03-11T12:41:33.895Z,18.0
2018-03-11T12:42:35.517Z,17.9
2018-03-11T12:43:37.130Z,17.9
2018-03-11T12:44:38.748Z,18.0
2018-03-11T12:45:40.366Z,18.1
2018-03-11T12:46:41.985Z,18.2
2018-03-11T12:47:43.601Z,18.1
2018-03-11T12:48:45.222Z,18.1
2018-03-11T12:49:46.841Z,18.1
2018-03-11T12:50:48.462Z,18.2
2018-03-11T12:51:50.074Z,18.4
2018-03-11T12:52:51.695Z,18.5
2018-03-11T12:53:53.314Z,18.5
2018-03-11T12:54:54.930Z,18.4
2018-03-11T12:55:56.583Z,18.4
2018-03-11T12:56:58.203Z,18.2
2018-03-11T12:57:59.821Z,18.2
2018-03-11T12:59:01.453Z,18.3
2018-03-11T13:00:03.075Z,18.2
2018-03-11T13:01:04.688Z,18.3
2018-03-11T13:02:06.300Z,18.4
2018-03-11T13:03:07.915Z,18.4
2018-03-11T13:04:09.530Z,18.4
2018-03-11T13:05:11.141Z,18.5
2018-03-11T13:06:12.753Z,18.6
2018-03-11T13:07:14.370Z,18.4
2018-03-11T13:08:15.984Z,18.5
2018-03-11T13:09:17.601Z,18.5
2018-03-11T13:10:19.214Z,18.5
2018-03-11T13:11:20.831Z,18.4
2018-03-11T13:12:22.441Z,18.3
2018-03-11T13:13:24.057Z,18.1
2018-03-11T13:14:25.667Z,18.0
2018-03-11T13:15:27.284Z,18.0
2018-03-11T13:16:28.898Z,17.9
2018-03-11T13:17:30.514Z,17.9
2018-03-11T13:18:32.126Z,18.0
2018-03-11T13:19:33.781Z,18.1
2018-03-11T13:20:35.351Z,18.2
2018-03-11T13:21:36.967Z,18.3
2018-03-11T13:22:38.580Z,18.2
2018-03-11T13:23:40.196Z,18.3
2018-03-11T13:24:41.810Z,18.4
2018-03-11T13:25:43.476Z,18.4
2018-03-11T13:26:45.039Z,18.4
2018-03-11T13:27:46.653Z,18.2
2018-03-11T13:28:48.267Z,18.4
2018-03-11T13:29:49.881Z,18.4
2018-03-11T13:30:51.494Z,18.5
2018-03-11T13:31:53.112Z,18.5
2018-03-11T13:32:54.725Z,18.4
2018-03-11T13:33:56.341Z,18.4
2018-03-11T13:34:57.954Z,18.5
2018-03-11T13:35:59.568Z,18.6
2018-03-11T13:37:01.182Z,18.4
2018-03-11T13:38:02.795Z,18.5
2018-03-11T13:39:04.411Z,18.5
2018-03-11T13:40:06.031Z,18.5
2018-03-11T13:41:07.641Z,18.5